createdAt,value
2019-03-18T00:00:28.660Z,1.67
2019-03-18T00:05:30.537Z,1.67
2019-03-18T00:10:32.643Z,1.93
2019-03-18T00:15:34.403Z,1.47
2019-03-18T00:20:36.254Z,1.70
2019-03-18T00:25:38.073Z,2.93
2019-03-18T00:30:39.837Z,1.40
2019-03-18T00:35:41.625Z,1.00
2019-03-18T00:40:43.420Z,1.40
2019-03-18T00:45:45.261Z,1.60
2019-03-18T00:50:47.065Z,1.73
2019-03-18T00:55:51.515Z,2.37
2019-03-18T01:00:52.429Z,1.73
2019-03-18T01:05:54.213Z,2.07
2019-03-18T01:10:55.997Z,1.20
2019-03-18T01:15:57.766Z,1.70
2019-03-18T01:20:59.538Z,0.90
2019-03-18T01:26:01.314Z,1.33
2019-03-18T01:31:03.099Z,0.80
2019-03-18T01:36:04.885Z,1.07
2019-03-18T01:41:06.737Z,1.70
2019-03-18T01:46:08.545Z,2.57
2019-03-18T01:51:10.314Z,2.27
2019-03-18T01:56:12.094Z,1.17
2019-03-18T02:01:13.863Z,2.83
2019-03-18T02:06:15.587Z,1.73
2019-03-18T02:11:17.406Z,1.90
2019-03-18T02:16:19.184Z,1.97
2019-03-18T02:21:20.968Z,1.17
2019-03-18T02:26:22.695Z,1.73
2019-03-18T02:31:24.505Z,1.67
2019-03-18T02:36:26.251Z,1.57
2019-03-18T02:41:28.083Z,4.23
2019-03-18T02:46:29.826Z,2.37
2019-03-18T02:51:31.622Z,2.47
2019-03-18T02:56:33.358Z,3.63
2019-03-18T03:01:35.169Z,2.20
2019-03-18T03:06:36.954Z,2.33
2019-03-18T03:11:38.743Z,2.50
2019-03-18T03:16:40.499Z,3.67
2019-03-18T03:21:42.297Z,4.27
2019-03-18T03:26:44.081Z,2.10
2019-03-18T03:31:45.807Z,3.83
2019-03-18T03:36:47.607Z,2.77
2019-03-18T03:41:49.350Z,3.30
2019-03-18T03:46:51.154Z,4.17
2019-03-18T03:51:52.946Z,2.57
2019-03-18T03:56:54.806Z,2.97
2019-03-18T04:01:56.649Z,3.30
2019-03-18T04:06:58.508Z,5.13
2019-03-18T04:12:00.242Z,3.80
2019-03-18T04:17:02.878Z,6.60
2019-03-18T04:22:04.980Z,4.53
2019-03-18T04:27:06.820Z,4.63
2019-03-18T04:32:08.547Z,5.60
2019-03-18T04:37:10.361Z,4.63
2019-03-18T04:42:12.112Z,7.57
2019-03-18T04:47:14.732Z,5.80
2019-03-18T04:52:16.718Z,5.50
2019-03-18T04:57:18.499Z,6.20
2019-03-18T05:02:20.204Z,5.60
2019-03-18T05:07:21.956Z,4.73
2019-03-18T05:12:23.728Z,5.40
2019-03-18T05:17:26.901Z,4.83
2019-03-18T05:22:28.922Z,6.57
2019-03-18T05:27:30.692Z,5.10
2019-03-18T05:32:32.470Z,5.03
2019-03-18T05:37:34.240Z,6.23
2019-03-18T05:42:35.961Z,7.13
2019-03-18T05:47:39.683Z,5.37
2019-03-18T05:52:41.423Z,7.13
2019-03-18T05:57:43.198Z,6.07
2019-03-18T06:02:47.052Z,7.10
2019-03-18T06:07:48.492Z,6.77
2019-03-18T06:12:50.219Z,3.87
2019-03-18T06:17:53.090Z,6.00
2019-03-18T06:22:54.953Z,5.30
2019-03-18T06:27:56.701Z,5.63
2019-03-18T06:32:58.418Z,3.93
2019-03-18T06:38:00.189Z,5.10
2019-03-18T06:43:01.911Z,4.37
2019-03-18T06:48:05.492Z,7.40
2019-03-18T06:53:07.498Z,2.40
2019-03-18T06:58:09.331Z,4.87
2019-03-18T07:03:11.053Z,3.53
2019-03-18T07:08:12.890Z,4.33
2019-03-18T07:13:14.651Z,5.27
2019-03-18T07:18:18.567Z,7.57
2019-03-18T07:23:20.049Z,4.57
2019-03-18T07:28:21.852Z,8.87
2019-03-18T07:33:23.573Z,3.77
2019-03-18T07:38:25.377Z,4.60
2019-03-18T07:43:27.157Z,6.93
2019-03-18T07:48:31.361Z,5.13
2019-03-18T07:53:32.689Z,8.33
2019-03-18T07:58:34.439Z,8.20
2019-03-18T08:03:36.645Z,5.47
2019-03-18T08:08:38.631Z,5.53
2019-03-18T08:13:40.473Z,8.43
2019-03-18T08:18:43.438Z,6.03
2019-03-18T08:23:45.478Z,6.57
2019-03-18T08:28:47.239Z,5.23
2019-03-18T08:33:48.960Z,4.40
2019-03-18T08:38:50.817Z,9.03
2019-03-18T08:43:52.573Z,8.63
2019-03-18T08:48:55.939Z,5.67
2019-03-18T08:53:57.976Z,3.17
2019-03-18T08:58:59.757Z,7.93
2019-03-18T09:04:01.521Z,8.03
2019-03-18T09:09:05.201Z,10.17
2019-03-18T09:14:07.013Z,4.93
2019-03-18T09:19:09.335Z,3.47
2019-03-18T09:24:11.301Z,5.67
2019-03-18T09:29:13.035Z,4.33
2019-03-18T09:34:14.769Z,5.80
2019-03-18T09:39:16.513Z,5.87
2019-03-18T09:44:18.349Z,3.50
2019-03-18T09:49:21.919Z,3.07
2019-03-18T09:54:23.645Z,4.97
2019-03-18T09:59:25.377Z,3.57
2019-03-18T10:04:27.141Z,3.50
2019-03-18T10:09:28.867Z,4.50
2019-03-18T10:14:30.592Z,6.20
2019-03-18T10:19:33.615Z,9.97
2019-03-18T10:24:35.799Z,13.63
2019-03-18T10:29:37.559Z,9.20
2019-03-18T10:34:39.287Z,11.13
2019-03-18T10:39:41.113Z,6.23
2019-03-18T10:44:42.839Z,9.30
2019-03-18T10:49:46.307Z,10.00
2019-03-18T10:54:48.228Z,10.97
2019-03-18T10:59:49.950Z,6.23
2019-03-18T11:04:51.682Z,6.80
2019-03-18T11:09:53.518Z,3.37
2019-03-18T11:14:55.241Z,7.30
2019-03-18T11:19:58.779Z,7.00
2019-03-18T11:25:00.585Z,4.93
2019-03-18T11:30:02.360Z,5.20
2019-03-18T11:35:04.206Z,6.27
2019-03-18T11:40:06.572Z,5.40
2019-03-18T11:45:08.925Z,4.83
2019-03-18T11:50:11.901Z,5.63
2019-03-18T11:55:13.978Z,4.93
2019-03-18T12:00:15.855Z,5.13
2019-03-18T12:05:17.669Z,4.27
2019-03-18T12:10:19.558Z,5.13
2019-03-18T12:15:21.677Z,2.67
2019-03-18T12:20:25.389Z,7.03
2019-03-18T12:25:27.359Z,3.83
2019-03-18T12:30:29.110Z,2.30
2019-03-18T12:35:30.829Z,4.40
2019-03-18T12:40:32.671Z,3.27
2019-03-18T12:45:34.543Z,5.83
2019-03-18T12:50:53.955Z,2.53
2019-03-18T12:55:39.962Z,3.53
2019-03-18T13:00:41.701Z,3.30
2019-03-18T13:05:43.424Z,3.83
2019-03-18T13:10:45.165Z,2.07
2019-03-18T13:15:46.877Z,4.93
2019-03-18T13:20:48.612Z,3.73
2019-03-18T13:25:50.350Z,4.83
2019-03-18T13:30:52.169Z,2.60
2019-03-18T13:35:53.894Z,3.90
2019-03-18T13:40:55.756Z,4.00
2019-03-18T13:45:57.467Z,5.67
2019-03-18T13:50:59.274Z,4.53
2019-03-18T13:56:01.015Z,4.97
2019-03-18T14:01:03.035Z,2.97
2019-03-18T14:06:04.792Z,3.70
2019-03-18T14:11:06.622Z,4.57
2019-03-18T14:16:08.357Z,2.30
2019-03-18T14:21:10.143Z,5.13
2019-03-18T14:26:11.965Z,5.43
2019-03-18T14:31:13.797Z,5.10
2019-03-18T14:36:15.528Z,3.77
2019-03-18T14:41:17.254Z,4.47
2019-03-18T14:46:18.977Z,3.47
2019-03-18T14:51:20.710Z,3.77
2019-03-18T14:56:22.512Z,5.83
2019-03-18T15:01:24.242Z,3.83
2019-03-18T15:06:25.963Z,3.13
2019-03-18T15:11:27.804Z,3.77
2019-03-18T15:16:29.592Z,3.53
2019-03-18T15:21:31.338Z,2.43
2019-03-18T15:26:33.086Z,3.27
2019-03-18T15:31:34.912Z,4.00
2019-03-18T15:36:36.643Z,3.93
2019-03-18T15:41:38.646Z,8.63
2019-03-18T15:46:40.442Z,4.07
2019-03-18T15:51:42.148Z,5.40
2019-03-18T15:56:43.988Z,4.93
2019-03-18T16:01:45.768Z,5.03
2019-03-18T16:06:47.560Z,3.50
2019-03-18T16:11:49.284Z,2.10
2019-03-18T16:17:01.607Z,4.87
2019-03-18T16:21:54.633Z,4.47
2019-03-18T16:26:56.403Z,4.90
2019-03-18T16:32:10.545Z,4.33
2019-03-18T16:37:01.669Z,5.30
2019-03-18T16:42:03.465Z,5.70
2019-03-18T16:47:05.241Z,3.77
2019-03-18T16:52:06.961Z,5.00
2019-03-18T16:57:08.806Z,5.17
2019-03-18T17:02:10.573Z,6.87
2019-03-18T17:07:12.393Z,7.87
2019-03-18T17:12:14.236Z,6.80
2019-03-18T17:17:16.017Z,5.83
2019-03-18T17:22:17.767Z,8.97
2019-03-18T17:27:19.569Z,6.37
2019-03-18T17:32:21.396Z,10.77
2019-03-18T17:37:23.118Z,9.33
2019-03-18T17:42:24.872Z,6.77
2019-03-18T17:47:26.681Z,7.50
2019-03-18T17:52:28.414Z,5.73
2019-03-18T17:57:30.248Z,6.27
2019-03-18T18:02:32.000Z,5.83
2019-03-18T18:07:45.351Z,7.23
2019-03-18T18:12:47.079Z,5.60
2019-03-18T18:17:48.901Z,6.13
2019-03-18T18:22:50.673Z,7.83
2019-03-18T18:27:52.454Z,11.83
2019-03-18T18:32:54.233Z,11.47
2019-03-18T18:37:55.954Z,13.80
2019-03-18T18:42:57.844Z,13.33
2019-03-18T18:47:59.653Z,11.00
2019-03-18T18:53:01.439Z,18.27
2019-03-18T18:58:03.215Z,11.97
2019-03-18T19:03:05.001Z,8.43
2019-03-18T19:08:06.769Z,8.13
2019-03-18T19:13:08.549Z,10.77
2019-03-18T19:18:10.322Z,17.60
2019-03-18T19:23:12.165Z,18.40
2019-03-18T19:28:14.481Z,16.97
2019-03-18T19:33:16.465Z,6.80
2019-03-18T19:38:18.197Z,17.33
2019-03-18T19:43:21.465Z,17.23
2019-03-18T19:48:37.788Z,16.80
2019-03-18T19:53:49.078Z,16.57
2019-03-18T19:58:46.649Z,22.13
2019-03-18T20:03:48.438Z,17.03
2019-03-18T20:08:50.213Z,18.37
2019-03-18T20:13:55.161Z,15.93
2019-03-18T20:19:01.120Z,16.73
2019-03-18T20:24:04.369Z,17.40
2019-03-18T20:29:06.430Z,12.67
2019-03-18T20:34:08.285Z,12.10
2019-03-18T20:39:10.030Z,12.13
2019-03-18T20:44:11.854Z,13.17
2019-03-18T20:49:13.661Z,15.80
2019-03-18T20:54:15.595Z,14.73
2019-03-18T20:59:17.491Z,17.43
2019-03-18T21:04:19.320Z,15.60
2019-03-18T21:09:21.158Z,16.60
2019-03-18T21:14:22.921Z,21.43
2019-03-18T21:19:24.897Z,16.37
2019-03-18T21:24:26.711Z,13.47
2019-03-18T21:29:28.478Z,14.20
2019-03-18T21:34:30.253Z,15.63
2019-03-18T21:39:31.981Z,15.17
2019-03-18T21:44:33.781Z,13.33
2019-03-18T21:49:35.580Z,12.67
2019-03-18T21:54:37.355Z,17.17
2019-03-18T21:59:39.117Z,11.87
2019-03-18T22:04:40.909Z,12.73
2019-03-18T22:09:42.658Z,9.37
2019-03-18T22:14:44.602Z,13.90
2019-03-18T22:19:46.326Z,12.30
2019-03-18T22:24:49.986Z,13.80
2019-03-18T22:29:51.631Z,11.77
2019-03-18T22:34:53.409Z,9.43
2019-03-18T22:39:55.130Z,17.40
2019-03-18T22:44:57.134Z,15.33
2019-03-18T22:49:58.938Z,12.70
2019-03-18T22:55:00.658Z,14.73
2019-03-18T23:00:02.800Z,13.60
2019-03-18T23:05:04.989Z,12.23
2019-03-18T23:10:07.332Z,14.77
2019-03-18T23:15:09.025Z,13.07
2019-03-18T23:20:10.918Z,14.77
2019-03-18T23:25:12.668Z,15.23
2019-03-18T23:30:14.458Z,13.33
2019-03-18T23:35:16.226Z,13.53
2019-03-18T23:40:17.936Z,14.30
2019-03-18T23:45:19.588Z,15.63
2019-03-18T23:50:21.342Z,11.43
2019-03-18T23:55:23.693Z,17.80
